La rose des vents
Donnes mto: Semaine 16/07/07 - 22/07/07 (S 29)
Date Horaire Temp. E. Hum. E. P.atmo. Pluie Vent 1mn Direction Ensoleilleme Ev.Tr. Solaire P. de rose Temp au vent Rafales
16/07/2007 00:00 22,0 C 29 % 1018,2 hPa 0,0 l/m 4,9 km/h (1 Bft) NO 0,00 h 0,102 mm 0 W/m 3,3 C 22,0 C 6,8 km/h (2 Bft)
16/07/2007 01:00 21,9 C 29 % 1017,9 hPa 0,0 l/m 4,3 km/h (1 Bft) O-NO 0,00 h 0,102 mm 0 W/m 3,0 C 21,9 C 6,2 km/h (2 Bft)
16/07/2007 02:00 21,8 C 29 % 1017,6 hPa 0,0 l/m 4,1 km/h (1 Bft) NO 0,00 h 0,102 mm 0 W/m 3,2 C 21,8 C 6,7 km/h (2 Bft)
16/07/2007 03:00 21,6 C 30 % 1017,3 hPa 0,0 l/m 3,7 km/h (1 Bft) N-NO 0,00 h 0,102 mm 0 W/m 3,2 C 21,6 C 5,8 km/h (2 Bft)
16/07/2007 04:00 21,3 C 31 % 1017,2 hPa 0,0 l/m 2,9 km/h (1 Bft) O-NO 0,00 h 0,102 mm 0 W/m 3,3 C 21,3 C 4,1 km/h (1 Bft)
16/07/2007 05:00 19,7 C 34 % 1017,3 hPa 0,0 l/m 1,9 km/h (1 Bft) NO 0,00 h 0,076 mm 0 W/m 3,6 C 19,7 C 3,2 km/h (1 Bft)
16/07/2007 06:00 20,2 C 34 % 1017,3 hPa 0,0 l/m 2,9 km/h (1 Bft) N-NO 0,03 h 0,025 mm 15 W/m 3,9 C 20,2 C 4,9 km/h (1 Bft)
16/07/2007 07:00 22,3 C 32 % 1017,3 hPa 0,0 l/m 0,9 km/h (0 Bft) O-NO 0,30 h 0,051 mm 93 W/m 4,7 C 22,3 C 2,6 km/h (1 Bft)
16/07/2007 08:00 25,8 C 28 % 1017,6 hPa 0,0 l/m 1,7 km/h (1 Bft) N 1,00 h 0,076 mm 339 W/m 6,0 C 25,8 C 4,2 km/h (1 Bft)
16/07/2007 09:00 29,6 C 23 % 1017,7 hPa 0,0 l/m 4,6 km/h (1 Bft) NE 1,00 h 0,254 mm 502 W/m 6,1 C 29,6 C 7,7 km/h (2 Bft)
16/07/2007 10:00 31,4 C 21 % 1017,5 hPa 0,0 l/m 9,1 km/h (2 Bft) E-NE 1,00 h 0,406 mm 646 W/m 6,1 C 31,4 C 14,1 km/h (3 Bft)
16/07/2007 11:00 31,6 C 20 % 1017,6 hPa 0,0 l/m 9,8 km/h (2 Bft) E 1,00 h 0,584 mm 759 W/m 5,9 C 31,6 C 15,4 km/h (3 Bft)
16/07/2007 12:00 30,7 C 22 % 1017,8 hPa 0,0 l/m 10,5 km/h (2 Bft) E 1,00 h 0,660 mm 835 W/m 6,6 C 30,7 C 16,6 km/h (3 Bft)
16/07/2007 13:00 30,7 C 27 % 1018,0 hPa 0,0 l/m 8,3 km/h (2 Bft) E 1,00 h 0,711 mm 856 W/m 9,6 C 30,7 C 13,7 km/h (3 Bft)
16/07/2007 14:00 30,4 C 31 % 1017,9 hPa 0,0 l/m 9,8 km/h (2 Bft) E-NE 1,00 h 0,686 mm 841 W/m 11,2 C 30,4 C 14,9 km/h (3 Bft)
16/07/2007 15:00 30,3 C 30 % 1017,8 hPa 0,0 l/m 9,2 km/h (2 Bft) E-NE 1,00 h 0,686 mm 766 W/m 10,7 C 30,3 C 14,0 km/h (3 Bft)
16/07/2007 16:00 29,4 C 32 % 1017,8 hPa 0,0 l/m 7,0 km/h (2 Bft) E 1,00 h 0,635 mm 648 W/m 11,2 C 29,4 C 10,7 km/h (2 Bft)
16/07/2007 17:00 29,7 C 31 % 1017,8 hPa 0,0 l/m 5,7 km/h (1 Bft) E-NE 1,00 h 0,508 mm 504 W/m 10,8 C 29,7 C 9,3 km/h (2 Bft)
16/07/2007 18:00 29,7 C 29 % 1017,3 hPa 0,0 l/m 4,8 km/h (1 Bft) E-NE 1,00 h 0,406 mm 342 W/m 9,8 C 29,7 C 7,6 km/h (2 Bft)
16/07/2007 19:00 28,2 C 32 % 1017,3 hPa 0,0 l/m 3,5 km/h (1 Bft) E-NE 1,00 h 0,305 mm 180 W/m 9,7 C 28,2 C 5,9 km/h (2 Bft)
16/07/2007 20:00 25,8 C 38 % 1016,9 hPa 0,0 l/m 1,2 km/h (1 Bft) E-NE 0,05 h 0,178 mm 41 W/m 10,5 C 25,8 C 2,6 km/h (1 Bft)
16/07/2007 21:00 24,5 C 35 % 1016,9 hPa 0,0 l/m 1,3 km/h (1 Bft) SE 0,00 h 0,051 mm 6 W/m 8,2 C 24,5 C 2,8 km/h (1 Bft)
16/07/2007 22:00 23,4 C 39 % 1017,2 hPa 0,0 l/m 2,0 km/h (1 Bft) O-NO 0,00 h 0,025 mm 0 W/m 8,7 C 23,4 C 3,8 km/h (1 Bft)
16/07/2007 23:00 22,9 C 40 % 1017,4 hPa 0,0 l/m 2,1 km/h (1 Bft) NO 0,00 h 0,076 mm 0 W/m 8,5 C 22,9 C 3,9 km/h (1 Bft)
17/07/2007 00:00 23,0 C 39 % 1017,3 hPa 0,0 l/m 2,6 km/h (1 Bft) NO 0,00 h 0,076 mm 0 W/m 8,3 C 23,0 C 4,5 km/h (1 Bft)
17/07/2007 01:00 22,5 C 39 % 1017,2 hPa 0,0 l/m 3,5 km/h (1 Bft) O-NO 0,00 h 0,076 mm 0 W/m 7,9 C 22,5 C 5,5 km/h (1 Bft)
17/07/2007 02:00 22,4 C 38 % 1016,7 hPa 0,0 l/m 3,2 km/h (1 Bft) NO 0,00 h 0,076 mm 0 W/m 7,5 C 22,4 C 5,1 km/h (1 Bft)
17/07/2007 03:00 21,6 C 39 % 1016,6 hPa 0,0 l/m 2,5 km/h (1 Bft) NO 0,00 h 0,076 mm 0 W/m 7,2 C 21,6 C 3,5 km/h (1 Bft)
17/07/2007 04:00 20,8 C 41 % 1016,3 hPa 0,0 l/m 1,8 km/h (1 Bft) S-SO 0,00 h 0,076 mm 0 W/m 7,1 C 20,8 C 3,2 km/h (1 Bft)
17/07/2007 05:00 20,4 C 42 % 1016,2 hPa 0,0 l/m 2,5 km/h (1 Bft) O-SO 0,00 h 0,076 mm 0 W/m 7,0 C 20,4 C 3,7 km/h (1 Bft)
17/07/2007 06:00 21,0 C 37 % 1016,2 hPa 0,0 l/m 7,3 km/h (2 Bft) O-NO 0,03 h 0,025 mm 21 W/m 5,8 C 21,0 C 10,6 km/h (2 Bft)
17/07/2007 07:00 22,4 C 36 % 1016,3 hPa 0,0 l/m 0,3 km/h (0 Bft) N-NO 0,30 h 0,102 mm 97 W/m 6,7 C 22,4 C 1,4 km/h (1 Bft)
17/07/2007 08:00 25,6 C 33 % 1016,5 hPa 0,0 l/m 2,6 km/h (1 Bft) S 1,00 h 0,076 mm 291 W/m 7,9 C 25,6 C 4,4 km/h (1 Bft)
17/07/2007 09:00 27,3 C 31 % 1016,6 hPa 0,0 l/m 3,3 km/h (1 Bft) S-SO 1,00 h 0,229 mm 458 W/m 8,8 C 27,3 C 5,3 km/h (1 Bft)
17/07/2007 10:00 29,0 C 30 % 1017,0 hPa 0,0 l/m 7,8 km/h (2 Bft) E 1,00 h 0,356 mm 612 W/m 9,6 C 29,0 C 12,0 km/h (2 Bft)
17/07/2007 11:00 27,9 C 40 % 1017,4 hPa 0,0 l/m 9,7 km/h (2 Bft) E 1,00 h 0,508 mm 738 W/m 12,9 C 27,9 C 14,5 km/h (3 Bft)
17/07/2007 12:00 28,2 C 47 % 1017,6 hPa 0,0 l/m 8,1 km/h (2 Bft) E 1,00 h 0,584 mm 817 W/m 15,7 C 28,2 C 14,3 km/h (3 Bft)
17/07/2007 13:00 28,3 C 53 % 1017,6 hPa 0,0 l/m 9,1 km/h (2 Bft) E-SE 1,00 h 0,610 mm 845 W/m 17,6 C 28,3 C 14,9 km/h (3 Bft)
17/07/2007 14:00 28,7 C 55 % 1017,6 hPa 0,0 l/m 6,7 km/h (2 Bft) E 1,00 h 0,635 mm 828 W/m 18,6 C 28,7 C 12,1 km/h (2 Bft)
17/07/2007 15:00 28,6 C 56 % 1017,4 hPa 0,0 l/m 8,4 km/h (2 Bft) E 1,00 h 0,610 mm 761 W/m 18,9 C 28,6 C 14,4 km/h (3 Bft)
17/07/2007 16:00 27,7 C 59 % 1017,3 hPa 0,0 l/m 7,5 km/h (2 Bft) E 1,00 h 0,559 mm 653 W/m 18,9 C 27,7 C 12,4 km/h (3 Bft)
17/07/2007 17:00 27,7 C 55 % 1016,9 hPa 0,0 l/m 4,6 km/h (1 Bft) E-SE 1,00 h 0,483 mm 508 W/m 17,8 C 27,7 C 8,2 km/h (2 Bft)
17/07/2007 18:00 26,2 C 67 % 1016,6 hPa 0,0 l/m 6,7 km/h (2 Bft) E 1,00 h 0,381 mm 343 W/m 19,4 C 26,2 C 9,6 km/h (2 Bft)
17/07/2007 19:00 24,9 C 74 % 1016,6 hPa 0,0 l/m 3,5 km/h (1 Bft) E-SE 0,98 h 0,254 mm 178 W/m 19,9 C 24,9 C 5,8 km/h (2 Bft)
17/07/2007 20:00 23,2 C 80 % 1016,3 hPa 0,0 l/m 0,4 km/h (0 Bft) E-SE 0,10 h 0,127 mm 38 W/m 19,6 C 23,2 C 1,2 km/h (1 Bft)
17/07/2007 21:00 22,1 C 84 % 1016,2 hPa 0,0 l/m 0,4 km/h (0 Bft) E-SE 0,00 h 0,025 mm 7 W/m 19,3 C 22,1 C 0,9 km/h (0 Bft)
17/07/2007 22:00 21,4 C 87 % 1016,6 hPa 0,0 l/m 0,5 km/h (0 Bft) E-SE 0,00 h 0,000 mm 0 W/m 19,1 C 21,4 C 1,1 km/h (1 Bft)
17/07/2007 23:00 20,8 C 85 % 1016,6 hPa 0,0 l/m 1,5 km/h (1 Bft) N-NO 0,00 h 0,025 mm 0 W/m 18,1 C 20,8 C 3,0 km/h (1 Bft)
18/07/2007 00:00 21,3 C 72 % 1016,4 hPa 0,0 l/m 0,2 km/h (0 Bft) N-NO 0,00 h 0,025 mm 0 W/m 16,0 C 21,3 C 0,7 km/h (0 Bft)
18/07/2007 01:00 21,2 C 68 % 1016,2 hPa 0,0 l/m 0,4 km/h (0 Bft) NO 0,00 h 0,025 mm 0 W/m 15,0 C 21,2 C 0,9 km/h (0 Bft)
18/07/2007 02:00 20,6 C 79 % 1016,2 hPa 0,0 l/m 0,2 km/h (0 Bft) SO 0,00 h 0,025 mm 0 W/m 16,9 C 20,6 C 0,6 km/h (0 Bft)
18/07/2007 03:00 19,8 C 82 % 1015,8 hPa 0,0 l/m 1,3 km/h (1 Bft) SO 0,00 h 0,025 mm 0 W/m 16,6 C 19,8 C 1,9 km/h (1 Bft)
18/07/2007 04:00 19,6 C 82 % 1015,6 hPa 0,0 l/m 1,4 km/h (1 Bft) SO 0,00 h 0,025 mm 0 W/m 16,5 C 19,6 C 2,2 km/h (1 Bft)
18/07/2007 05:00 19,5 C 72 % 1015,6 hPa 0,0 l/m 1,7 km/h (1 Bft) SO 0,00 h 0,025 mm 0 W/m 14,4 C 19,5 C 2,7 km/h (1 Bft)
18/07/2007 06:00 20,1 C 59 % 1015,7 hPa 0,0 l/m 2,0 km/h (1 Bft) O-NO 0,03 h 0,025 mm 17 W/m 11,9 C 20,1 C 3,9 km/h (1 Bft)
18/07/2007 07:00 21,6 C 55 % 1015,9 hPa 0,0 l/m 1,0 km/h (0 Bft) O-NO 0,32 h 0,025 mm 91 W/m 12,0 C 21,6 C 1,9 km/h (1 Bft)
18/07/2007 08:00 25,1 C 43 % 1015,9 hPa 0,0 l/m 0,7 km/h (0 Bft) O 1,00 h 0,076 mm 308 W/m 11,7 C 25,1 C 2,1 km/h (1 Bft)
18/07/2007 09:00 27,9 C 37 % 1015,8 hPa 0,0 l/m 2,2 km/h (1 Bft) E 1,00 h 0,203 mm 474 W/m 11,7 C 27,9 C 4,0 km/h (1 Bft)
18/07/2007 10:00 30,0 C 32 % 1015,5 hPa 0,0 l/m 5,4 km/h (1 Bft) E 1,00 h 0,356 mm 626 W/m 11,7 C 30,0 C 9,7 km/h (2 Bft)
18/07/2007 11:00 29,3 C 38 % 1015,6 hPa 0,0 l/m 10,3 km/h (2 Bft) E 1,00 h 0,483 mm 746 W/m 13,4 C 29,3 C 14,6 km/h (3 Bft)
18/07/2007 12:00 29,3 C 42 % 1015,9 hPa 0,0 l/m 9,8 km/h (2 Bft) E 1,00 h 0,610 mm 826 W/m 14,9 C 29,3 C 14,4 km/h (3 Bft)
18/07/2007 13:00 29,8 C 39 % 1015,9 hPa 0,0 l/m 8,8 km/h (2 Bft) E 1,00 h 0,660 mm 851 W/m 14,2 C 29,8 C 13,2 km/h (3 Bft)
18/07/2007 14:00 29,8 C 37 % 1015,5 hPa 0,0 l/m 7,3 km/h (2 Bft) E-SE 1,00 h 0,660 mm 835 W/m 13,7 C 29,8 C 12,2 km/h (2 Bft)
18/07/2007 15:00 30,3 C 37 % 1015,0 hPa 0,0 l/m 6,1 km/h (2 Bft) E-SE 1,00 h 0,635 mm 772 W/m 13,8 C 30,3 C 10,5 km/h (2 Bft)
18/07/2007 16:00 30,0 C 38 % 1015,0 hPa 0,0 l/m 5,6 km/h (1 Bft) E 1,00 h 0,584 mm 658 W/m 14,3 C 30,0 C 9,1 km/h (2 Bft)
18/07/2007 17:00 30,1 C 35 % 1014,6 hPa 0,0 l/m 4,1 km/h (1 Bft) E-SE 1,00 h 0,508 mm 516 W/m 13,1 C 30,1 C 7,2 km/h (2 Bft)
18/07/2007 18:00 29,3 C 36 % 1014,4 hPa 0,0 l/m 2,8 km/h (1 Bft) SE 1,00 h 0,406 mm 353 W/m 12,5 C 29,3 C 5,3 km/h (1 Bft)
18/07/2007 19:00 28,1 C 38 % 1014,1 hPa 0,0 l/m 2,4 km/h (1 Bft) E 1,00 h 0,279 mm 188 W/m 12,5 C 28,1 C 4,4 km/h (1 Bft)
18/07/2007 20:00 26,1 C 44 % 1013,9 hPa 0,0 l/m 0,1 km/h (0 Bft) SE 0,10 h 0,152 mm 32 W/m 12,8 C 26,1 C 0,6 km/h (0 Bft)
18/07/2007 21:00 24,1 C 50 % 1013,9 hPa 0,0 l/m 0,0 km/h (0 Bft) SE 0,00 h 0,025 mm 6 W/m 13,0 C 24,1 C 0,2 km/h (0 Bft)
18/07/2007 22:00 23,6 C 50 % 1014,1 hPa 0,0 l/m 0,0 km/h (0 Bft) N 0,00 h 0,025 mm 0 W/m 12,5 C 23,6 C 0,1 km/h (0 Bft)
18/07/2007 23:00 22,9 C 51 % 1014,2 hPa 0,0 l/m 0,3 km/h (0 Bft) SE 0,00 h 0,051 mm 0 W/m 12,3 C 22,9 C 0,7 km/h (0 Bft)
19/07/2007 00:00 22,4 C 52 % 1014,4 hPa 0,0 l/m 0,1 km/h (0 Bft) SE 0,00 h 0,051 mm 0 W/m 12,2 C 22,4 C 0,4 km/h (0 Bft)
19/07/2007 01:00 22,3 C 50 % 1014,3 hPa 0,0 l/m 3,1 km/h (1 Bft) O-NO 0,00 h 0,051 mm 0 W/m 11,4 C 22,3 C 4,1 km/h (1 Bft)
19/07/2007 02:00 22,4 C 48 % 1013,9 hPa 0,0 l/m 3,4 km/h (1 Bft) O-NO 0,00 h 0,076 mm 0 W/m 10,9 C 22,4 C 4,9 km/h (1 Bft)
19/07/2007 03:00 21,4 C 50 % 1013,8 hPa 0,0 l/m 3,3 km/h (1 Bft) O-NO 0,00 h 0,076 mm 0 W/m 10,7 C 21,4 C 5,1 km/h (1 Bft)
19/07/2007 04:00 21,5 C 50 % 1013,5 hPa 0,0 l/m 4,7 km/h (1 Bft) O-NO 0,00 h 0,076 mm 0 W/m 10,7 C 21,5 C 5,9 km/h (2 Bft)
19/07/2007 05:00 21,4 C 50 % 1013,4 hPa 0,0 l/m 4,2 km/h (1 Bft) O-NO 0,00 h 0,076 mm 0 W/m 10,5 C 21,4 C 6,1 km/h (2 Bft)
19/07/2007 06:00 21,2 C 51 % 1013,5 hPa 0,0 l/m 1,0 km/h (0 Bft) NO 0,03 h 0,051 mm 16 W/m 10,6 C 21,2 C 1,9 km/h (1 Bft)
19/07/2007 07:00 22,5 C 48 % 1013,9 hPa 0,0 l/m 1,5 km/h (1 Bft) NO 0,28 h 0,025 mm 88 W/m 11,0 C 22,5 C 2,6 km/h (1 Bft)
19/07/2007 08:00 25,1 C 42 % 1014,1 hPa 0,0 l/m 3,1 km/h (1 Bft) E 1,00 h 0,076 mm 314 W/m 11,3 C 25,1 C 5,7 km/h (1 Bft)
19/07/2007 09:00 26,8 C 42 % 1014,1 hPa 0,0 l/m 3,2 km/h (1 Bft) E 1,00 h 0,229 mm 480 W/m 12,6 C 26,8 C 5,9 km/h (2 Bft)
19/07/2007 10:00 28,3 C 45 % 1014,2 hPa 0,0 l/m 6,6 km/h (2 Bft) E 1,00 h 0,356 mm 629 W/m 15,3 C 28,3 C 10,0 km/h (2 Bft)
19/07/2007 11:00 28,2 C 50 % 1014,5 hPa 0,0 l/m 9,1 km/h (2 Bft) E 1,00 h 0,483 mm 748 W/m 16,8 C 28,2 C 14,0 km/h (3 Bft)
19/07/2007 12:00 28,1 C 56 % 1014,5 hPa 0,0 l/m 8,3 km/h (2 Bft) E 1,00 h 0,559 mm 827 W/m 18,4 C 28,1 C 13,1 km/h (3 Bft)
19/07/2007 13:00 28,6 C 55 % 1014,3 hPa 0,0 l/m 7,8 km/h (2 Bft) E-SE 1,00 h 0,610 mm 856 W/m 18,5 C 28,6 C 12,6 km/h (3 Bft)
19/07/2007 14:00 29,3 C 53 % 1013,9 hPa 0,0 l/m 6,6 km/h (2 Bft) E 1,00 h 0,635 mm 830 W/m 18,6 C 29,3 C 11,4 km/h (2 Bft)
19/07/2007 15:00 29,8 C 52 % 1013,7 hPa 0,0 l/m 8,7 km/h (2 Bft) E 1,00 h 0,610 mm 769 W/m 18,8 C 29,8 C 13,9 km/h (3 Bft)
19/07/2007 16:00 28,8 C 57 % 1013,6 hPa 0,0 l/m 6,0 km/h (2 Bft) E 1,00 h 0,584 mm 657 W/m 19,4 C 28,8 C 10,5 km/h (2 Bft)
19/07/2007 17:00 28,2 C 57 % 1013,4 hPa 0,0 l/m 4,9 km/h (1 Bft) E 1,00 h 0,483 mm 514 W/m 18,8 C 28,2 C 8,3 km/h (2 Bft)
19/07/2007 18:00 28,1 C 50 % 1012,9 hPa 0,0 l/m 5,3 km/h (1 Bft) E-NE 1,00 h 0,381 mm 353 W/m 16,8 C 28,1 C 8,3 km/h (2 Bft)
19/07/2007 19:00 26,8 C 60 % 1012,6 hPa 0,0 l/m 1,8 km/h (1 Bft) E 1,00 h 0,279 mm 184 W/m 18,3 C 26,8 C 3,7 km/h (1 Bft)
19/07/2007 20:00 24,5 C 70 % 1012,4 hPa 0,0 l/m 0,3 km/h (0 Bft) E-SE 0,08 h 0,127 mm 31 W/m 18,5 C 24,5 C 0,9 km/h (0 Bft)
19/07/2007 21:00 22,8 C 76 % 1012,4 hPa 0,0 l/m 0,0 km/h (0 Bft) N 0,00 h 0,025 mm 6 W/m 18,3 C 22,8 C 0,2 km/h (0 Bft)
19/07/2007 22:00 21,8 C 80 % 1012,8 hPa 0,0 l/m 0,3 km/h (0 Bft) E-SE 0,00 h 0,000 mm 0 W/m 18,3 C 21,8 C 0,5 km/h (0 Bft)
19/07/2007 23:00 21,6 C 69 % 1012,7 hPa 0,0 l/m 2,8 km/h (1 Bft) N-NO 0,00 h 0,025 mm 0 W/m 15,7 C 21,6 C 4,8 km/h (1 Bft)
20/07/2007 00:00 21,7 C 62 % 1012,7 hPa 0,0 l/m 1,4 km/h (1 Bft) S-SO 0,00 h 0,051 mm 0 W/m 14,2 C 21,7 C 2,3 km/h (1 Bft)
20/07/2007 01:00 20,8 C 75 % 1012,6 hPa 0,0 l/m 3,1 km/h (1 Bft) SO 0,00 h 0,051 mm 0 W/m 16,2 C 20,8 C 5,1 km/h (1 Bft)
20/07/2007 02:00 20,9 C 61 % 1012,3 hPa 0,0 l/m 3,8 km/h (1 Bft) NO 0,00 h 0,025 mm 0 W/m 13,0 C 20,9 C 6,3 km/h (2 Bft)
20/07/2007 03:00 21,3 C 57 % 1012,0 hPa 0,0 l/m 3,3 km/h (1 Bft) NO 0,00 h 0,051 mm 0 W/m 12,3 C 21,3 C 5,0 km/h (1 Bft)
20/07/2007 04:00 21,3 C 54 % 1011,8 hPa 0,0 l/m 1,4 km/h (1 Bft) NO 0,00 h 0,051 mm 0 W/m 11,7 C 21,3 C 2,3 km/h (1 Bft)
20/07/2007 05:00 21,2 C 53 % 1011,9 hPa 0,0 l/m 0,6 km/h (0 Bft) NO 0,00 h 0,051 mm 0 W/m 11,2 C 21,2 C 1,5 km/h (1 Bft)
20/07/2007 06:00 20,2 C 57 % 1012,3 hPa 0,0 l/m 1,9 km/h (1 Bft) NO 0,03 h 0,025 mm 17 W/m 11,3 C 20,2 C 3,0 km/h (1 Bft)
20/07/2007 07:00 21,3 C 54 % 1012,7 hPa 0,0 l/m 0,2 km/h (0 Bft) SO 0,28 h 0,025 mm 88 W/m 11,7 C 21,3 C 0,5 km/h (0 Bft)
20/07/2007 08:00 24,3 C 46 % 1013,0 hPa 0,0 l/m 1,5 km/h (1 Bft) SO 1,00 h 0,076 mm 311 W/m 11,8 C 24,3 C 3,1 km/h (1 Bft)
20/07/2007 09:00 26,8 C 43 % 1013,0 hPa 0,0 l/m 3,9 km/h (1 Bft) E-NE 1,00 h 0,229 mm 476 W/m 13,0 C 26,8 C 6,6 km/h (2 Bft)
20/07/2007 10:00 27,8 C 46 % 1013,1 hPa 0,0 l/m 6,3 km/h (2 Bft) E 1,00 h 0,356 mm 625 W/m 15,1 C 27,8 C 10,0 km/h (2 Bft)
20/07/2007 11:00 28,8 C 41 % 1013,0 hPa 0,0 l/m 7,6 km/h (2 Bft) E 1,00 h 0,483 mm 744 W/m 14,3 C 28,8 C 12,1 km/h (2 Bft)
20/07/2007 12:00 28,8 C 42 % 1013,3 hPa 0,0 l/m 11,3 km/h (2 Bft) E 1,00 h 0,559 mm 826 W/m 14,6 C 28,8 C 16,6 km/h (3 Bft)
20/07/2007 13:00 28,7 C 45 % 1013,5 hPa 0,0 l/m 8,4 km/h (2 Bft) E-SE 1,00 h 0,660 mm 855 W/m 15,5 C 28,7 C 13,0 km/h (3 Bft)
20/07/2007 14:00 28,8 C 50 % 1013,6 hPa 0,0 l/m 11,4 km/h (2 Bft) E 1,00 h 0,635 mm 832 W/m 17,4 C 28,8 C 16,7 km/h (3 Bft)
20/07/2007 15:00 29,3 C 53 % 1013,6 hPa 0,0 l/m 11,0 km/h (2 Bft) E 1,00 h 0,635 mm 757 W/m 18,7 C 29,3 C 16,0 km/h (3 Bft)
20/07/2007 16:00 29,3 C 49 % 1013,3 hPa 0,0 l/m 10,0 km/h (2 Bft) E 1,00 h 0,584 mm 650 W/m 17,5 C 29,3 C 14,6 km/h (3 Bft)
20/07/2007 17:00 28,5 C 50 % 1012,8 hPa 0,0 l/m 8,1 km/h (2 Bft) E 1,00 h 0,533 mm 507 W/m 17,2 C 28,5 C 11,7 km/h (2 Bft)
20/07/2007 18:00 28,2 C 51 % 1012,3 hPa 0,0 l/m 5,9 km/h (2 Bft) E 1,00 h 0,406 mm 342 W/m 17,0 C 28,2 C 8,9 km/h (2 Bft)
20/07/2007 19:00 27,2 C 53 % 1012,3 hPa 0,0 l/m 4,7 km/h (1 Bft) S-SE 1,00 h 0,279 mm 179 W/m 16,6 C 27,2 C 7,5 km/h (2 Bft)
20/07/2007 20:00 25,1 C 57 % 1012,4 hPa 0,0 l/m 2,9 km/h (1 Bft) S 0,12 h 0,152 mm 30 W/m 16,0 C 25,1 C 4,9 km/h (1 Bft)
20/07/2007 21:00 23,1 C 75 % 1012,4 hPa 0,0 l/m 0,2 km/h (0 Bft) S 0,00 h 0,051 mm 6 W/m 18,3 C 23,1 C 0,6 km/h (0 Bft)
20/07/2007 22:00 21,3 C 84 % 1012,9 hPa 0,0 l/m 0,0 km/h (0 Bft) S 0,00 h 0,000 mm 0 W/m 18,4 C 21,3 C 0,2 km/h (0 Bft)
20/07/2007 23:00 20,6 C 89 % 1013,1 hPa 0,0 l/m 0,6 km/h (0 Bft) E 0,00 h 0,025 mm 0 W/m 18,8 C 20,6 C 2,1 km/h (1 Bft)
21/07/2007 00:00 20,3 C 91 % 1013,0 hPa 0,0 l/m 0,2 km/h (0 Bft) E 0,00 h 0,025 mm 0 W/m 18,7 C 20,3 C 0,7 km/h (0 Bft)
21/07/2007 01:00 20,0 C 91 % 1012,7 hPa 0,0 l/m 0,6 km/h (0 Bft) N-NE 0,00 h 0,025 mm 0 W/m 18,5 C 20,0 C 1,8 km/h (1 Bft)
21/07/2007 02:00 19,0 C 91 % 1012,7 hPa 0,0 l/m 0,1 km/h (0 Bft) NE 0,00 h 0,025 mm 0 W/m 17,5 C 19,0 C 0,5 km/h (0 Bft)
21/07/2007 03:00 18,6 C 91 % 1012,4 hPa 0,0 l/m 0,5 km/h (0 Bft) N 0,00 h 0,025 mm 0 W/m 17,1 C 18,6 C 2,1 km/h (1 Bft)
21/07/2007 04:00 19,0 C 91 % 1012,3 hPa 0,0 l/m 1,0 km/h (0 Bft) N 0,00 h 0,025 mm 0 W/m 17,5 C 19,0 C 2,6 km/h (1 Bft)
21/07/2007 05:00 19,7 C 91 % 1012,3 hPa 0,0 l/m 0,8 km/h (0 Bft) N-NO 0,00 h 0,025 mm 0 W/m 18,1 C 19,7 C 2,2 km/h (1 Bft)
21/07/2007 06:00 19,3 C 90 % 1012,4 hPa 0,0 l/m 1,1 km/h (1 Bft) N 0,02 h 0,000 mm 21 W/m 17,6 C 19,3 C 3,4 km/h (1 Bft)
21/07/2007 07:00 20,2 C 87 % 1012,8 hPa 0,0 l/m 0,5 km/h (0 Bft) N 0,23 h 0,025 mm 105 W/m 17,9 C 20,2 C 2,1 km/h (1 Bft)
21/07/2007 08:00 23,1 C 75 % 1012,8 hPa 0,0 l/m 4,6 km/h (1 Bft) NE 0,72 h 0,076 mm 276 W/m 18,4 C 23,1 C 7,3 km/h (2 Bft)
21/07/2007 09:00 24,2 C 73 % 1013,0 hPa 0,0 l/m 5,3 km/h (1 Bft) E-NE 0,50 h 0,203 mm 354 W/m 19,1 C 24,2 C 8,7 km/h (2 Bft)
21/07/2007 10:00 25,4 C 71 % 1013,1 hPa 0,0 l/m 7,6 km/h (2 Bft) E 0,72 h 0,254 mm 555 W/m 19,6 C 25,4 C 12,0 km/h (2 Bft)
21/07/2007 11:00 26,1 C 68 % 1013,0 hPa 0,0 l/m 9,7 km/h (2 Bft) E 0,95 h 0,406 mm 755 W/m 19,7 C 26,1 C 15,3 km/h (3 Bft)
21/07/2007 12:00 27,2 C 65 % 1012,5 hPa 0,0 l/m 10,0 km/h (2 Bft) E-NE 0,93 h 0,533 mm 806 W/m 19,9 C 27,2 C 15,8 km/h (3 Bft)
21/07/2007 13:00 27,1 C 65 % 1012,4 hPa 0,0 l/m 10,6 km/h (2 Bft) E 1,00 h 0,584 mm 863 W/m 20,0 C 27,1 C 17,2 km/h (3 Bft)
21/07/2007 14:00 27,3 C 63 % 1012,7 hPa 0,0 l/m 9,9 km/h (2 Bft) E 1,00 h 0,610 mm 844 W/m 19,6 C 27,3 C 15,1 km/h (3 Bft)
21/07/2007 15:00 27,3 C 63 % 1012,6 hPa 0,0 l/m 10,1 km/h (2 Bft) E 1,00 h 0,610 mm 783 W/m 19,5 C 27,3 C 16,5 km/h (3 Bft)
21/07/2007 16:00 26,5 C 66 % 1012,6 hPa 0,0 l/m 7,5 km/h (2 Bft) E 0,88 h 0,559 mm 652 W/m 19,6 C 26,5 C 12,7 km/h (3 Bft)
21/07/2007 17:00 26,1 C 66 % 1012,5 hPa 0,0 l/m 5,1 km/h (1 Bft) E 0,75 h 0,457 mm 484 W/m 19,2 C 26,1 C 8,2 km/h (2 Bft)
21/07/2007 18:00 26,0 C 71 % 1011,8 hPa 0,0 l/m 4,7 km/h (1 Bft) SE 1,00 h 0,330 mm 344 W/m 20,4 C 26,0 C 8,1 km/h (2 Bft)
21/07/2007 19:00 24,9 C 76 % 1011,8 hPa 0,0 l/m 3,7 km/h (1 Bft) E 0,57 h 0,254 mm 139 W/m 20,3 C 24,9 C 6,0 km/h (2 Bft)
21/07/2007 20:00 23,4 C 82 % 1011,2 hPa 0,0 l/m 1,6 km/h (1 Bft) NE 0,02 h 0,102 mm 30 W/m 20,2 C 23,4 C 3,2 km/h (1 Bft)
21/07/2007 21:00 22,2 C 88 % 1011,1 hPa 0,0 l/m 0,1 km/h (0 Bft) NE 0,00 h 0,025 mm 5 W/m 20,2 C 22,2 C 0,7 km/h (0 Bft)
21/07/2007 22:00 21,5 C 91 % 1011,3 hPa 0,0 l/m 0,0 km/h (0 Bft) N 0,00 h 0,000 mm 0 W/m 20,0 C 21,5 C 0,0 km/h (0 Bft)
21/07/2007 23:00 21,0 C 93 % 1011,0 hPa 0,0 l/m 0,2 km/h (0 Bft) E 0,00 h 0,025 mm 0 W/m 19,8 C 21,0 C 0,5 km/h (0 Bft)
22/07/2007 00:00 20,5 C 94 % 1010,9 hPa 0,0 l/m 1,3 km/h (1 Bft) N 0,00 h 0,000 mm 0 W/m 19,5 C 20,5 C 2,4 km/h (1 Bft)
22/07/2007 01:00 20,0 C 94 % 1010,7 hPa 0,0 l/m 2,1 km/h (1 Bft) O-NO 0,00 h 0,025 mm 0 W/m 19,0 C 20,0 C 3,8 km/h (1 Bft)
22/07/2007 02:00 19,6 C 94 % 1010,4 hPa 0,0 l/m 0,1 km/h (0 Bft) O-NO 0,00 h 0,025 mm 0 W/m 18,6 C 19,6 C 0,3 km/h (0 Bft)
22/07/2007 03:00 19,2 C 94 % 1010,2 hPa 0,0 l/m 1,1 km/h (1 Bft) O-NO 0,00 h 0,000 mm 0 W/m 18,2 C 19,2 C 1,9 km/h (1 Bft)
22/07/2007 04:00 19,0 C 93 % 1009,9 hPa 0,0 l/m 0,5 km/h (0 Bft) O-NO 0,00 h 0,000 mm 0 W/m 17,9 C 19,0 C 1,3 km/h (1 Bft)
22/07/2007 05:00 18,5 C 93 % 1009,8 hPa 0,0 l/m 2,4 km/h (1 Bft) NO 0,00 h 0,000 mm 0 W/m 17,3 C 18,5 C 4,3 km/h (1 Bft)
22/07/2007 06:00 18,2 C 91 % 1009,9 hPa 0,0 l/m 3,7 km/h (1 Bft) NO 0,03 h 0,000 mm 16 W/m 16,8 C 18,2 C 6,4 km/h (2 Bft)
22/07/2007 07:00 19,5 C 79 % 1010,0 hPa 0,0 l/m 2,0 km/h (1 Bft) NO 0,25 h 0,025 mm 81 W/m 15,7 C 19,5 C 3,8 km/h (1 Bft)
22/07/2007 08:00 23,8 C 52 % 1010,2 hPa 0,0 l/m 9,4 km/h (2 Bft) O-SO 1,00 h 0,051 mm 316 W/m 13,3 C 23,8 C 14,5 km/h (3 Bft)
22/07/2007 09:00 28,0 C 33 % 1010,2 hPa 0,0 l/m 15,4 km/h (3 Bft) O-SO 1,00 h 0,279 mm 485 W/m 10,0 C 28,0 C 21,7 km/h (4 Bft)
22/07/2007 10:00 30,4 C 26 % 1010,2 hPa 0,0 l/m 21,2 km/h (4 Bft) O-SO 1,00 h 0,508 mm 637 W/m 8,5 C 30,4 C 29,8 km/h (5 Bft)
22/07/2007 11:00 31,6 C 20 % 1010,1 hPa 0,0 l/m 23,5 km/h (4 Bft) O 1,00 h 0,711 mm 760 W/m 5,9 C 31,6 C 34,0 km/h (5 Bft)
22/07/2007 12:00 32,7 C 18 % 1009,7 hPa 0,0 l/m 19,0 km/h (3 Bft) O-NO 1,00 h 0,864 mm 843 W/m 5,6 C 32,7 C 28,6 km/h (4 Bft)
22/07/2007 13:00 33,5 C 17 % 1009,5 hPa 0,0 l/m 18,9 km/h (3 Bft) O 1,00 h 0,864 mm 878 W/m 5,4 C 33,5 C 28,0 km/h (4 Bft)
22/07/2007 14:00 34,0 C 17 % 1008,9 hPa 0,0 l/m 26,4 km/h (4 Bft) SO 1,00 h 0,889 mm 859 W/m 5,6 C 34,0 C 36,0 km/h (5 Bft)
22/07/2007 15:00 33,9 C 17 % 1008,7 hPa 0,0 l/m 32,1 km/h (5 Bft) SO 1,00 h 1,016 mm 795 W/m 5,6 C 33,9 C 42,8 km/h (6 Bft)
22/07/2007 16:00 33,3 C 22 % 1008,5 hPa 0,0 l/m 28,0 km/h (4 Bft) S-SO 1,00 h 1,041 mm 673 W/m 8,2 C 33,3 C 37,2 km/h (5 Bft)
22/07/2007 17:00 31,3 C 32 % 1008,7 hPa 0,0 l/m 23,9 km/h (4 Bft) S-SO 1,00 h 0,864 mm 514 W/m 12,7 C 31,3 C 31,7 km/h (5 Bft)
22/07/2007 18:00 30,5 C 33 % 1008,6 hPa 0,0 l/m 22,6 km/h (4 Bft) S 1,00 h 0,635 mm 353 W/m 12,4 C 30,5 C 29,9 km/h (5 Bft)
22/07/2007 19:00 28,9 C 38 % 1008,4 hPa 0,0 l/m 22,0 km/h (4 Bft) S-SO 0,85 h 0,508 mm 178 W/m 12,9 C 28,9 C 29,1 km/h (5 Bft)
22/07/2007 20:00 27,3 C 37 % 1008,3 hPa 0,0 l/m 16,8 km/h (3 Bft) SO 0,00 h 0,356 mm 17 W/m 11,2 C 27,3 C 22,6 km/h (4 Bft)
22/07/2007 21:00 26,8 C 32 % 1008,6 hPa 0,0 l/m 19,4 km/h (3 Bft) SO 0,00 h 0,203 mm 0 W/m 8,9 C 26,8 C 25,0 km/h (4 Bft)
22/07/2007 22:00 25,6 C 37 % 1008,9 hPa 0,0 l/m 10,4 km/h (2 Bft) O-SO 0,00 h 0,229 mm 0 W/m 9,9 C 25,6 C 15,0 km/h (3 Bft)
22/07/2007 23:00 24,6 C 43 % 1008,7 hPa 0,0 l/m 10,8 km/h (2 Bft) O-SO 0,00 h 0,152 mm 0 W/m 11,1 C 24,6 C 14,6 km/h (3 Bft)
Min-Date _ 22/07/07 22/07/07 22/07/07 - 16/07/07 - - - - 16/07/07 22/07/07 16/07/07
_ Min-Heure 06:19 13:05 20:00 - 02:58 - - - - 01:30 06:19 04:32
Minimum _ 17,9 C 16 % 1008,1 hPa - 0,0 km/h (0 Bft) - - - - 2,4 C 17,9 C 0,0 km/h (0 Bft)
Max-Date _ 22/07/07 21/07/07 16/07/07 16/07/07 22/07/07 - 18/07/07 22/07/07 21/07/07 21/07/07 22/07/07 22/07/07
_ Max-Heure 14:02 23:48 00:00 00:00 16:01 - 09:50 16:00 12:44 18:44 14:02 15:26
Maximum _ 34,4 C 94 % 1018,2 hPa 0,0 l/m 49,9 km/h
S-SO (6 Bft)
- 0,03 h 1,041 mm 935 W/m 20,9 C 34,4 C 56,3 km/h
SO (7 Bft)
Moyenne _ 25,1 C 53 % 1014,0 hPa #0,0 l/m 5,5 km/h (1 Bft) E #84:30 h #45,252 mm 458 W/m 13,6 C 25,1 C 8,5 km/h (2 Bft)
Roquefort les pins